Time;durP1;ratioP1;P1;durP2;ratioP2;P2;SDS_P1;SDS_P2;PMS_P1;PMS_P2;Temp;Humidity;BMP_temperature;BMP_pressure;BME280_temperature;BME280_humidity;BME280_pressure;Samples;Min_cycle;Max_cycle;Signal;HPM_P1;HPM_P2
2022/03/02 00:01:36;;;;;;;52.85;22.02;;;;;;;;;;4942828;28;20073;-82
2022/03/02 00:04:02;;;;;;;51.90;22.50;;;;;;;;;;4946906;28;20032;-82
2022/03/02 00:06:28;;;;;;;53.15;23.15;;;;;;;;;;4943942;28;20031;-82
2022/03/02 00:08:54;;;;;;;50.22;21.85;;;;;;;;;;4957748;28;20197;-82
2022/03/02 00:11:20;;;;;;;51.40;22.30;;;;;;;;;;4954446;28;20106;-82
2022/03/02 00:13:46;;;;;;;47.60;22.52;;;;;;;;;;4948195;28;20094;-82
2022/03/02 00:16:14;;;;;;;50.58;22.92;;;;;;;;;;4945309;28;20118;-82
2022/03/02 00:18:40;;;;;;;49.92;22.55;;;;;;;;;;4947103;28;20027;-82
2022/03/02 00:21:06;;;;;;;57.88;23.40;;;;;;;;;;4939660;28;20026;-82
2022/03/02 00:23:33;;;;;;;56.50;23.48;;;;;;;;;;4948083;28;20055;-82
2022/03/02 00:26:05;;;;;;;57.42;24.25;;;;;;;;;;4942298;28;20273;-82
2022/03/02 00:28:31;;;;;;;55.83;23.02;;;;;;;;;;4947270;28;20026;-82
2022/03/02 00:30:57;;;;;;;55.00;24.60;;;;;;;;;;4944925;28;20481;-82
2022/03/02 00:33:23;;;;;;;52.13;24.05;;;;;;;;;;4944870;28;20061;-82
2022/03/02 00:35:56;;;;;;;55.20;23.13;;;;;;;;;;4945787;28;20086;-82
2022/03/02 00:38:22;;;;;;;54.67;24.02;;;;;;;;;;4938868;28;20039;-82
2022/03/02 00:40:48;;;;;;;55.85;23.70;;;;;;;;;;4958625;28;20054;-82
2022/03/02 00:43:14;;;;;;;55.28;23.83;;;;;;;;;;4945315;28;20388;-82
2022/03/02 00:45:40;;;;;;;59.50;24.45;;;;;;;;;;4946866;28;20031;-82
2022/03/02 00:48:08;;;;;;;61.38;25.15;;;;;;;;;;4957434;28;20031;-82
2022/03/02 00:50:34;;;;;;;57.90;25.48;;;;;;;;;;4943150;28;20050;-82
2022/03/02 00:53:02;;;;;;;60.35;24.45;;;;;;;;;;4943107;28;20437;-82
2022/03/02 00:55:28;;;;;;;53.45;24.48;;;;;;;;;;4962218;28;20023;-83
2022/03/02 00:57:54;;;;;;;59.13;24.08;;;;;;;;;;4948136;28;20031;-83
2022/03/02 01:00:20;;;;;;;54.08;24.33;;;;;;;;;;4945809;28;20074;-82
2022/03/02 01:02:46;;;;;;;56.70;24.33;;;;;;;;;;4947491;28;20031;-82
2022/03/02 01:05:13;;;;;;;54.50;24.92;;;;;;;;;;4940190;28;20024;-82
2022/03/02 01:07:39;;;;;;;58.55;24.95;;;;;;;;;;4944905;28;20090;-82
2022/03/02 01:10:06;;;;;;;54.83;24.15;;;;;;;;;;4943779;28;20389;-82
2022/03/02 01:12:33;;;;;;;59.17;24.48;;;;;;;;;;4953906;28;20043;-81
2022/03/02 01:14:59;;;;;;;58.42;25.65;;;;;;;;;;4942000;28;20419;-82
2022/03/02 01:17:26;;;;;;;58.97;25.58;;;;;;;;;;4950256;28;20031;-82
2022/03/02 01:19:52;;;;;;;58.53;23.98;;;;;;;;;;4944006;28;20082;-82
2022/03/02 01:22:19;;;;;;;61.38;25.65;;;;;;;;;;4949557;28;20085;-82
2022/03/02 01:24:45;;;;;;;64.43;26.92;;;;;;;;;;4944631;28;20030;-82
2022/03/02 01:27:11;;;;;;;59.65;23.92;;;;;;;;;;4945949;28;20443;-82
2022/03/02 01:29:37;;;;;;;64.90;26.23;;;;;;;;;;4946407;28;20027;-82
2022/03/02 01:32:05;;;;;;;52.83;25.35;;;;;;;;;;4948111;28;20028;-82
2022/03/02 01:34:31;;;;;;;63.03;26.30;;;;;;;;;;4959322;28;20074;-82
2022/03/02 01:36:57;;;;;;;61.50;25.73;;;;;;;;;;4946547;28;20035;-82
2022/03/02 01:39:24;;;;;;;59.53;25.65;;;;;;;;;;4946481;28;20457;-82
2022/03/02 01:41:50;;;;;;;55.20;24.17;;;;;;;;;;4960216;28;20039;-82
2022/03/02 01:44:16;;;;;;;62.35;24.88;;;;;;;;;;4955969;28;20038;-82
2022/03/02 01:46:42;;;;;;;59.17;26.50;;;;;;;;;;4957816;28;20838;-83
2022/03/02 01:49:09;;;;;;;74.40;27.35;;;;;;;;;;4959164;28;20023;-81
2022/03/02 01:51:35;;;;;;;56.42;25.13;;;;;;;;;;4963142;28;20043;-81
2022/03/02 01:54:02;;;;;;;64.60;25.92;;;;;;;;;;4943899;28;20042;-82
2022/03/02 01:56:28;;;;;;;58.80;25.58;;;;;;;;;;4948040;28;20066;-82
2022/03/02 01:58:54;;;;;;;60.88;26.08;;;;;;;;;;4960863;28;20051;-82
2022/03/02 02:01:20;;;;;;;57.80;24.52;;;;;;;;;;4945616;28;20030;-82
2022/03/02 02:03:46;;;;;;;62.45;28.40;;;;;;;;;;4960384;28;20431;-82
2022/03/02 02:06:13;;;;;;;67.75;27.40;;;;;;;;;;4945870;28;20059;-82
2022/03/02 02:08:40;;;;;;;66.05;27.65;;;;;;;;;;4961215;28;20034;-82
2022/03/02 02:11:06;;;;;;;66.10;27.25;;;;;;;;;;4948849;28;20059;-82
2022/03/02 02:13:34;;;;;;;65.40;28.63;;;;;;;;;;4960868;28;20033;-82
2022/03/02 02:16:00;;;;;;;62.83;26.25;;;;;;;;;;4961797;28;20034;-82
2022/03/02 02:18:27;;;;;;;70.10;29.52;;;;;;;;;;4950631;28;20036;-82
2022/03/02 02:20:53;;;;;;;64.88;27.50;;;;;;;;;;4946015;28;20035;-82
2022/03/02 02:23:19;;;;;;;65.68;28.42;;;;;;;;;;4951538;28;20121;-81
2022/03/02 02:25:45;;;;;;;64.45;29.70;;;;;;;;;;4950249;28;20523;-81
2022/03/02 02:28:13;;;;;;;70.85;27.70;;;;;;;;;;4943993;28;20038;-81
2022/03/02 02:30:39;;;;;;;65.25;26.55;;;;;;;;;;4949011;28;20768;-81
2022/03/02 02:33:06;;;;;;;70.88;28.70;;;;;;;;;;4947792;28;20028;-81
2022/03/02 02:35:33;;;;;;;67.07;27.10;;;;;;;;;;4947322;28;20489;-81
2022/03/02 02:37:59;;;;;;;72.93;29.88;;;;;;;;;;4947213;28;20483;-82
2022/03/02 02:40:27;;;;;;;70.55;28.17;;;;;;;;;;4946048;28;20086;-82
2022/03/02 02:42:53;;;;;;;69.57;27.83;;;;;;;;;;4946202;28;20055;-82
2022/03/02 02:45:20;;;;;;;72.20;29.63;;;;;;;;;;4948330;28;20090;-81
2022/03/02 02:47:47;;;;;;;71.57;28.85;;;;;;;;;;4944029;28;20050;-81
2022/03/02 02:50:24;;;;;;;74.40;29.23;;;;;;;;;;4945088;28;20055;-82
2022/03/02 02:52:51;;;;;;;77.93;30.30;;;;;;;;;;4949994;28;20545;-82
2022/03/02 02:55:18;;;;;;;82.75;31.02;;;;;;;;;;4961835;28;20038;-82
2022/03/02 02:57:44;;;;;;;82.25;31.30;;;;;;;;;;4947732;28;20038;-81
2022/03/02 03:00:12;;;;;;;77.50;32.42;;;;;;;;;;4947683;29;20033;-82
2022/03/02 03:02:38;;;;;;;76.18;30.50;;;;;;;;;;4949199;28;20037;-82
2022/03/02 03:05:04;;;;;;;73.45;30.67;;;;;;;;;;4960987;28;20024;-82
2022/03/02 03:07:30;;;;;;;81.38;32.28;;;;;;;;;;4962442;28;20473;-82
2022/03/02 03:09:57;;;;;;;78.50;30.00;;;;;;;;;;4959869;28;20055;-82
2022/03/02 03:12:23;;;;;;;81.88;31.42;;;;;;;;;;4945950;28;20035;-82
2022/03/02 03:14:49;;;;;;;79.70;31.02;;;;;;;;;;4941535;28;20031;-81
2022/03/02 03:17:15;;;;;;;85.10;31.63;;;;;;;;;;4946754;28;20066;-82
2022/03/02 03:19:41;;;;;;;86.60;32.00;;;;;;;;;;4964083;28;20578;-82
2022/03/02 03:22:07;;;;;;;87.18;31.27;;;;;;;;;;4963331;28;20055;-82
2022/03/02 03:24:34;;;;;;;76.35;30.75;;;;;;;;;;4949703;28;20097;-82
2022/03/02 03:27:00;;;;;;;87.05;32.13;;;;;;;;;;4944090;28;20050;-81
2022/03/02 03:29:27;;;;;;;80.68;29.63;;;;;;;;;;4949972;28;20034;-81
2022/03/02 03:31:53;;;;;;;80.05;30.88;;;;;;;;;;4959562;28;20023;-81
2022/03/02 03:34:25;;;;;;;78.78;30.42;;;;;;;;;;4948302;28;20047;-82
2022/03/02 03:36:58;;;;;;;77.97;30.95;;;;;;;;;;4946706;28;20257;-82
2022/03/02 03:39:24;;;;;;;77.13;29.67;;;;;;;;;;4944174;28;20035;-82
2022/03/02 03:41:50;;;;;;;81.00;30.58;;;;;;;;;;4944317;28;20464;-81
2022/03/02 03:44:16;;;;;;;85.03;31.25;;;;;;;;;;4942807;28;20384;-81
2022/03/02 03:46:42;;;;;;;77.88;31.88;;;;;;;;;;4947903;28;20039;-82
2022/03/02 03:49:09;;;;;;;73.95;27.98;;;;;;;;;;4945979;28;20039;-81
2022/03/02 03:51:35;;;;;;;83.32;30.45;;;;;;;;;;4959500;28;20031;-81
2022/03/02 03:54:01;;;;;;;71.00;30.75;;;;;;;;;;4958817;28;20488;-82
2022/03/02 03:56:31;;;;;;;78.93;30.40;;;;;;;;;;4943119;28;20050;-82
2022/03/02 03:58:59;;;;;;;78.55;30.55;;;;;;;;;;4950013;28;20031;-81
2022/03/02 04:01:25;;;;;;;80.38;30.08;;;;;;;;;;4946575;28;20031;-81
2022/03/02 04:03:51;;;;;;;83.85;30.25;;;;;;;;;;4944557;28;20036;-82
2022/03/02 04:06:17;;;;;;;79.35;31.23;;;;;;;;;;4962331;28;20050;-81
2022/03/02 04:08:44;;;;;;;82.68;29.23;;;;;;;;;;4951991;28;20097;-81
2022/03/02 04:11:11;;;;;;;80.20;30.48;;;;;;;;;;4943413;28;20396;-81
2022/03/02 04:13:37;;;;;;;79.45;30.45;;;;;;;;;;4948082;29;20494;-81
2022/03/02 04:16:03;;;;;;;77.88;30.88;;;;;;;;;;4949570;28;20035;-81
2022/03/02 04:18:31;;;;;;;82.90;29.75;;;;;;;;;;4948179;28;20381;-81
2022/03/02 04:20:58;;;;;;;79.28;30.92;;;;;;;;;;4947921;28;20059;-81
2022/03/02 04:23:25;;;;;;;71.68;29.55;;;;;;;;;;4943757;28;20488;-82
2022/03/02 04:25:51;;;;;;;78.72;31.08;;;;;;;;;;4948570;28;20535;-81
2022/03/02 04:28:17;;;;;;;75.53;29.80;;;;;;;;;;4946090;28;20031;-82
2022/03/02 04:30:43;;;;;;;79.60;31.73;;;;;;;;;;4944666;28;20042;-82
2022/03/02 04:33:09;;;;;;;72.47;31.35;;;;;;;;;;4947376;28;20027;-81
2022/03/02 04:35:36;;;;;;;92.03;31.38;;;;;;;;;;4961931;28;20077;-81
2022/03/02 04:38:03;;;;;;;77.07;29.98;;;;;;;;;;4958424;28;20031;-82
2022/03/02 04:40:29;;;;;;;77.90;30.80;;;;;;;;;;4962416;28;20047;-82
2022/03/02 04:42:55;;;;;;;74.20;31.27;;;;;;;;;;4943340;28;20027;-81
2022/03/02 04:45:28;;;;;;;80.43;32.78;;;;;;;;;;4946160;28;20114;-82
2022/03/02 04:47:55;;;;;;;93.50;32.53;;;;;;;;;;4943979;28;20070;-82
2022/03/02 04:50:21;;;;;;;87.82;30.50;;;;;;;;;;4956449;28;20054;-81
2022/03/02 04:52:48;;;;;;;69.32;29.98;;;;;;;;;;4944705;28;20432;-81
2022/03/02 04:55:14;;;;;;;83.93;30.65;;;;;;;;;;4942464;28;20520;-82
2022/03/02 04:57:42;;;;;;;83.15;31.92;;;;;;;;;;4959669;28;20063;-82
2022/03/02 05:00:11;;;;;;;80.43;31.23;;;;;;;;;;4945596;28;20023;-82
2022/03/02 05:02:37;;;;;;;77.88;30.33;;;;;;;;;;4948303;28;20042;-82
2022/03/02 05:05:04;;;;;;;81.10;30.52;;;;;;;;;;4958686;28;20564;-82
2022/03/02 05:07:30;;;;;;;84.65;30.45;;;;;;;;;;4946967;28;20031;-82
2022/03/02 05:09:56;;;;;;;73.50;30.15;;;;;;;;;;4957951;28;20514;-82
2022/03/02 05:12:22;;;;;;;76.55;32.22;;;;;;;;;;4947723;28;20054;-82
2022/03/02 05:14:49;;;;;;;74.97;29.88;;;;;;;;;;4947443;28;20487;-82
2022/03/02 05:17:15;;;;;;;74.32;30.05;;;;;;;;;;4943468;28;20035;-82
2022/03/02 05:19:41;;;;;;;77.80;30.63;;;;;;;;;;4948724;28;20054;-82
2022/03/02 05:22:07;;;;;;;78.07;30.95;;;;;;;;;;4948104;28;20464;-81
2022/03/02 05:24:33;;;;;;;79.55;31.25;;;;;;;;;;4949303;28;20062;-82
2022/03/02 05:26:59;;;;;;;87.82;32.25;;;;;;;;;;4943403;28;20448;-82
2022/03/02 05:29:25;;;;;;;87.47;33.45;;;;;;;;;;4947542;28;20031;-81
2022/03/02 05:31:52;;;;;;;87.55;32.67;;;;;;;;;;4945007;28;20467;-81
2022/03/02 05:34:18;;;;;;;88.20;31.52;;;;;;;;;;4944136;28;20047;-81
2022/03/02 05:36:44;;;;;;;80.38;31.35;;;;;;;;;;4964843;28;20035;-82
2022/03/02 05:39:10;;;;;;;88.20;31.77;;;;;;;;;;4951099;28;20040;-81
2022/03/02 05:41:38;;;;;;;81.05;30.60;;;;;;;;;;4956079;28;20047;-81
2022/03/02 05:44:07;;;;;;;84.38;31.55;;;;;;;;;;4948109;28;20020;-81
2022/03/02 05:46:33;;;;;;;84.60;32.13;;;;;;;;;;4952357;28;20593;-81
2022/03/02 05:48:59;;;;;;;83.70;32.08;;;;;;;;;;4953189;28;20125;-81
2022/03/02 05:51:26;;;;;;;90.78;32.25;;;;;;;;;;4954530;28;20031;-80
2022/03/02 05:53:52;;;;;;;99.07;32.10;;;;;;;;;;4948564;28;20043;-81
2022/03/02 05:56:18;;;;;;;81.85;33.65;;;;;;;;;;4946128;28;20059;-81
2022/03/02 05:58:44;;;;;;;90.35;34.33;;;;;;;;;;4947369;28;20528;-81
2022/03/02 06:01:10;;;;;;;78.78;30.98;;;;;;;;;;4963338;28;20755;-81
2022/03/02 06:03:36;;;;;;;90.22;32.97;;;;;;;;;;4962041;28;20035;-81
2022/03/02 06:06:04;;;;;;;79.38;29.13;;;;;;;;;;4962296;28;20078;-81
2022/03/02 06:08:30;;;;;;;80.20;30.90;;;;;;;;;;4954956;28;20039;-81
2022/03/02 06:10:56;;;;;;;81.53;30.40;;;;;;;;;;4951471;28;20372;-81
2022/03/02 06:13:22;;;;;;;84.70;32.75;;;;;;;;;;4950409;28;20041;-81
2022/03/02 06:15:48;;;;;;;79.53;31.30;;;;;;;;;;4949051;28;20024;-81
2022/03/02 06:18:14;;;;;;;80.28;29.58;;;;;;;;;;4949893;28;20076;-81
2022/03/02 06:20:44;;;;;;;84.88;31.40;;;;;;;;;;4951466;28;20452;-81
2022/03/02 06:23:10;;;;;;;75.72;29.83;;;;;;;;;;4965633;28;20395;-81
2022/03/02 06:25:36;;;;;;;85.95;31.65;;;;;;;;;;4964516;28;20815;-81
2022/03/02 06:28:02;;;;;;;81.43;31.73;;;;;;;;;;4951379;28;20407;-81
2022/03/02 06:30:28;;;;;;;81.50;30.27;;;;;;;;;;4946768;28;20035;-81
2022/03/02 06:32:55;;;;;;;80.85;31.33;;;;;;;;;;4949360;28;20063;-81
2022/03/02 06:35:27;;;;;;;80.05;31.65;;;;;;;;;;4950525;28;20431;-81
2022/03/02 06:38:00;;;;;;;84.00;32.05;;;;;;;;;;4960776;28;20043;-83
2022/03/02 06:40:26;;;;;;;80.50;29.92;;;;;;;;;;4966151;28;20031;-82
2022/03/02 06:43:05;;;;;;;84.35;32.67;;;;;;;;;;4951441;28;20666;-82
2022/03/02 06:45:45;;;;;;;84.05;31.17;;;;;;;;;;4964568;28;20066;-82
2022/03/02 06:48:13;;;;;;;73.78;30.00;;;;;;;;;;4968658;28;20642;-82
2022/03/02 06:50:43;;;;;;;85.25;33.72;;;;;;;;;;4951424;28;20519;-82
2022/03/02 06:53:12;;;;;;;80.22;31.33;;;;;;;;;;4948003;28;20046;-82
2022/03/02 06:55:40;;;;;;;84.25;32.22;;;;;;;;;;4958905;28;20090;-82
2022/03/02 06:58:09;;;;;;;82.63;32.58;;;;;;;;;;4948867;28;20674;-82
2022/03/02 07:00:35;;;;;;;81.57;30.42;;;;;;;;;;4962085;28;20625;-82
2022/03/02 07:03:17;;;;;;;74.68;30.67;;;;;;;;;;4946929;28;20396;-82
2022/03/02 07:05:43;;;;;;;78.57;29.40;;;;;;;;;;4962470;28;20093;-82
2022/03/02 07:08:09;;;;;;;79.97;31.08;;;;;;;;;;4959852;28;20032;-81
2022/03/02 07:10:36;;;;;;;71.07;29.10;;;;;;;;;;4947352;28;20031;-82
2022/03/02 07:13:04;;;;;;;67.28;27.83;;;;;;;;;;4944485;28;20031;-82
2022/03/02 07:15:31;;;;;;;68.10;28.67;;;;;;;;;;4963023;28;20039;-80
2022/03/02 07:18:02;;;;;;;68.18;28.65;;;;;;;;;;4947352;28;20027;-82
2022/03/02 07:20:28;;;;;;;68.38;28.08;;;;;;;;;;4960544;28;20549;-82
2022/03/02 07:22:55;;;;;;;64.88;27.23;;;;;;;;;;4963193;28;20593;-82
2022/03/02 07:25:21;;;;;;;74.35;29.38;;;;;;;;;;4945478;28;20126;-82
2022/03/02 07:27:49;;;;;;;66.15;27.98;;;;;;;;;;4947934;28;20121;-82
2022/03/02 07:30:16;;;;;;;60.75;26.45;;;;;;;;;;4959144;28;20046;-82
2022/03/02 07:32:45;;;;;;;61.55;26.15;;;;;;;;;;4957133;28;20042;-82
2022/03/02 07:35:18;;;;;;;67.65;26.42;;;;;;;;;;4943627;28;20394;-82
2022/03/02 07:37:55;;;;;;;62.15;25.23;;;;;;;;;;4948694;28;20146;-82
2022/03/02 07:40:21;;;;;;;53.47;23.80;;;;;;;;;;4957791;28;20050;-82
2022/03/02 07:42:47;;;;;;;57.20;25.25;;;;;;;;;;4957051;28;20067;-82
2022/03/02 07:45:13;;;;;;;59.28;26.27;;;;;;;;;;4948946;28;20043;-82
2022/03/02 07:47:39;;;;;;;55.20;24.27;;;;;;;;;;4948722;28;20039;-82
2022/03/02 07:50:06;;;;;;;56.63;25.00;;;;;;;;;;4949072;28;20039;-82
2022/03/02 07:52:35;;;;;;;55.92;26.23;;;;;;;;;;4942960;28;20596;-82
2022/03/02 07:55:03;;;;;;;54.47;24.63;;;;;;;;;;4949589;28;20103;-82
2022/03/02 07:57:30;;;;;;;57.55;24.98;;;;;;;;;;4960666;28;20436;-82
2022/03/02 07:59:58;;;;;;;53.95;24.92;;;;;;;;;;4948683;28;20030;-82
2022/03/02 08:02:25;;;;;;;57.92;25.63;;;;;;;;;;4956803;28;20095;-82
2022/03/02 08:04:52;;;;;;;53.67;24.45;;;;;;;;;;4944125;28;20031;-82
2022/03/02 08:07:19;;;;;;;58.95;25.75;;;;;;;;;;4943351;28;20039;-81
2022/03/02 08:09:45;;;;;;;59.53;25.50;;;;;;;;;;4943149;28;20067;-82
2022/03/02 08:12:11;;;;;;;60.75;24.58;;;;;;;;;;4950006;28;20023;-82
2022/03/02 08:14:38;;;;;;;62.50;26.63;;;;;;;;;;4944729;28;20027;-82
2022/03/02 08:17:04;;;;;;;52.53;25.35;;;;;;;;;;4948320;28;20020;-82
2022/03/02 08:19:31;;;;;;;55.20;26.63;;;;;;;;;;4944923;28;20046;-82
2022/03/02 08:21:58;;;;;;;53.50;24.58;;;;;;;;;;4951228;28;20039;-82
2022/03/02 08:24:29;;;;;;;49.65;24.15;;;;;;;;;;4958189;28;20023;-83
2022/03/02 08:26:59;;;;;;;56.88;25.00;;;;;;;;;;4940916;28;20031;-82
2022/03/02 08:29:32;;;;;;;59.63;26.77;;;;;;;;;;4947598;28;20035;-82
2022/03/02 08:32:00;;;;;;;60.88;26.73;;;;;;;;;;4950996;28;20035;-83
2022/03/02 08:34:27;;;;;;;58.30;25.25;;;;;;;;;;4946833;29;20150;-83
2022/03/02 08:36:54;;;;;;;57.55;27.08;;;;;;;;;;4943566;28;20514;-83
2022/03/02 08:39:20;;;;;;;54.08;25.30;;;;;;;;;;4959062;28;20035;-83
2022/03/02 08:41:48;;;;;;;52.55;26.45;;;;;;;;;;4943332;28;20326;-83
2022/03/02 08:44:14;;;;;;;63.47;26.13;;;;;;;;;;4951302;28;20027;-83
2022/03/02 08:46:40;;;;;;;55.15;25.52;;;;;;;;;;4944402;28;20035;-83
2022/03/02 08:49:07;;;;;;;49.97;25.40;;;;;;;;;;4946728;28;20082;-82
2022/03/02 08:51:34;;;;;;;57.03;26.38;;;;;;;;;;4956935;28;20046;-82
2022/03/02 08:54:01;;;;;;;53.63;26.83;;;;;;;;;;4956333;28;20400;-82
2022/03/02 08:56:27;;;;;;;58.80;25.85;;;;;;;;;;4949632;28;20027;-82
2022/03/02 08:58:54;;;;;;;56.80;27.35;;;;;;;;;;4945548;28;20035;-82
2022/03/02 09:01:20;;;;;;;49.08;24.58;;;;;;;;;;4945557;28;20370;-82
2022/03/02 09:03:48;;;;;;;54.70;25.90;;;;;;;;;;4940636;28;20480;-82
2022/03/02 09:06:16;;;;;;;56.47;25.33;;;;;;;;;;4946341;28;20031;-82
2022/03/02 09:08:42;;;;;;;48.80;24.20;;;;;;;;;;4943701;28;20082;-82
2022/03/02 09:11:09;;;;;;;49.08;24.75;;;;;;;;;;4941910;28;20046;-82
2022/03/02 09:13:39;;;;;;;51.72;24.42;;;;;;;;;;4942090;28;20046;-83
2022/03/02 09:16:05;;;;;;;57.08;26.35;;;;;;;;;;4939355;28;20372;-83
2022/03/02 09:18:32;;;;;;;52.28;26.45;;;;;;;;;;4943266;28;20609;-82
2022/03/02 09:21:01;;;;;;;55.13;26.00;;;;;;;;;;4938658;28;20023;-83
2022/03/02 09:23:29;;;;;;;55.05;27.60;;;;;;;;;;4946619;28;20127;-82
2022/03/02 09:25:58;;;;;;;57.58;25.77;;;;;;;;;;4957335;28;20041;-82
2022/03/02 09:28:28;;;;;;;47.20;24.42;;;;;;;;;;4956262;28;20046;-82
2022/03/02 09:30:54;;;;;;;48.10;24.02;;;;;;;;;;4955031;28;20845;-82
2022/03/02 09:33:22;;;;;;;51.42;25.38;;;;;;;;;;4944265;28;20472;-82
2022/03/02 09:35:48;;;;;;;45.03;24.75;;;;;;;;;;4952195;28;20567;-82
2022/03/02 09:38:14;;;;;;;50.50;25.38;;;;;;;;;;4942529;28;20106;-82
2022/03/02 09:40:46;;;;;;;55.95;26.88;;;;;;;;;;4943240;28;20016;-82
2022/03/02 09:43:16;;;;;;;46.65;25.17;;;;;;;;;;4946275;28;20396;-82
2022/03/02 09:45:43;;;;;;;51.75;25.70;;;;;;;;;;4948472;28;20512;-82
2022/03/02 09:48:12;;;;;;;48.67;24.77;;;;;;;;;;4961534;28;20534;-82
2022/03/02 09:50:39;;;;;;;43.63;24.13;;;;;;;;;;4947312;28;20034;-83
2022/03/02 09:53:08;;;;;;;50.30;25.98;;;;;;;;;;4941350;28;20074;-80
2022/03/02 09:55:38;;;;;;;48.05;24.38;;;;;;;;;;4944823;28;20413;-80
2022/03/02 09:58:05;;;;;;;46.15;24.45;;;;;;;;;;4959769;28;20054;-80
2022/03/02 10:00:31;;;;;;;46.85;24.67;;;;;;;;;;4945374;28;20185;-80
2022/03/02 10:02:59;;;;;;;51.67;24.20;;;;;;;;;;4945155;28;20023;-80
2022/03/02 10:05:29;;;;;;;47.80;24.38;;;;;;;;;;4959346;28;20031;-80
2022/03/02 10:08:05;;;;;;;44.55;25.27;;;;;;;;;;4962045;28;20051;-83
2022/03/02 10:10:33;;;;;;;45.35;24.33;;;;;;;;;;4958591;28;20027;-83
2022/03/02 10:13:02;;;;;;;52.38;27.48;;;;;;;;;;4962836;28;20071;-82
2022/03/02 10:15:28;;;;;;;43.35;24.33;;;;;;;;;;4956059;28;20031;-82
2022/03/02 10:17:57;;;;;;;51.08;24.95;;;;;;;;;;4943456;28;20062;-83
2022/03/02 10:20:25;;;;;;;47.85;23.85;;;;;;;;;;4939588;28;20027;-82
2022/03/02 10:22:57;;;;;;;52.50;24.77;;;;;;;;;;4945172;28;20037;-83
2022/03/02 10:25:28;;;;;;;45.35;23.45;;;;;;;;;;4957662;28;20693;-82
2022/03/02 10:28:07;;;;;;;44.15;23.30;;;;;;;;;;4948470;28;20110;-82
2022/03/02 10:30:36;;;;;;;42.47;24.60;;;;;;;;;;4958567;28;20027;-82
2022/03/02 10:33:17;;;;;;;54.55;26.38;;;;;;;;;;4958797;28;20116;-82
2022/03/02 10:35:49;;;;;;;46.63;25.42;;;;;;;;;;4957362;28;20058;-82
2022/03/02 10:38:17;;;;;;;43.38;25.00;;;;;;;;;;4962280;28;20856;-83
2022/03/02 10:40:45;;;;;;;43.50;24.15;;;;;;;;;;4941903;28;20039;-83
2022/03/02 10:43:11;;;;;;;50.28;24.60;;;;;;;;;;4949747;28;20623;-82
2022/03/02 10:45:51;;;;;;;44.30;24.23;;;;;;;;;;4946392;28;20027;-83
2022/03/02 10:48:24;;;;;;;43.80;24.25;;;;;;;;;;4956904;28;20538;-83
2022/03/02 10:50:52;;;;;;;43.65;24.10;;;;;;;;;;4961453;28;20043;-82
2022/03/02 10:53:19;;;;;;;44.47;25.25;;;;;;;;;;4947543;28;20031;-83
2022/03/02 10:55:46;;;;;;;42.80;24.35;;;;;;;;;;4943613;28;20034;-83
2022/03/02 10:58:17;;;;;;;40.42;23.65;;;;;;;;;;4938907;28;20038;-83
2022/03/02 11:00:44;;;;;;;46.35;24.08;;;;;;;;;;4943192;28;20040;-80
2022/03/02 11:03:10;;;;;;;37.78;22.63;;;;;;;;;;4961646;28;20027;-80
2022/03/02 11:05:36;;;;;;;39.50;23.75;;;;;;;;;;4941207;28;20036;-80
2022/03/02 11:08:03;;;;;;;40.13;23.83;;;;;;;;;;4937322;28;20036;-81
2022/03/02 11:10:33;;;;;;;38.05;19.45;;;;;;;;;;4949060;28;20055;-81
2022/03/02 11:13:05;;;;;;;45.67;23.98;;;;;;;;;;4960583;28;20042;-81
2022/03/02 11:16:10;;;;;;;42.63;23.48;;;;;;;;;;4943206;28;20031;-81
2022/03/02 11:18:48;;;;;;;38.78;22.17;;;;;;;;;;4923446;28;20177;-82
2022/03/02 11:21:17;;;;;;;39.50;22.17;;;;;;;;;;4941695;28;20039;-81
2022/03/02 11:23:49;;;;;;;38.50;20.00;;;;;;;;;;4946531;28;20027;-81
2022/03/02 11:26:16;;;;;;;34.30;19.50;;;;;;;;;;4943173;28;20098;-81
2022/03/02 11:28:48;;;;;;;32.40;19.25;;;;;;;;;;4942071;28;20023;-81
2022/03/02 11:31:18;;;;;;;40.85;20.17;;;;;;;;;;4941569;28;20033;-81
2022/03/02 11:33:44;;;;;;;37.63;20.38;;;;;;;;;;4961497;28;20098;-81
2022/03/02 11:36:11;;;;;;;37.75;20.40;;;;;;;;;;4958368;28;20043;-81
2022/03/02 11:38:39;;;;;;;36.30;20.33;;;;;;;;;;4943590;28;20484;-81
2022/03/02 11:41:05;;;;;;;40.28;21.23;;;;;;;;;;4956589;28;20122;-81
2022/03/02 11:43:34;;;;;;;35.17;19.65;;;;;;;;;;4958552;28;20796;-81
2022/03/02 11:46:01;;;;;;;40.03;21.88;;;;;;;;;;4957756;28;20036;-81
2022/03/02 11:48:29;;;;;;;39.50;21.48;;;;;;;;;;4956521;28;20114;-81
2022/03/02 11:51:12;;;;;;;33.45;20.98;;;;;;;;;;4944848;28;20507;-82
2022/03/02 11:53:41;;;;;;;32.65;20.23;;;;;;;;;;4954250;28;20050;-81
2022/03/02 11:56:08;;;;;;;32.42;20.13;;;;;;;;;;4944449;28;20042;-81
2022/03/02 11:58:54;;;;;;;34.03;21.98;;;;;;;;;;4955675;28;20106;-82
2022/03/02 12:01:20;;;;;;;35.15;20.65;;;;;;;;;;4954734;28;20032;-81
2022/03/02 12:04:00;;;;;;;33.15;20.23;;;;;;;;;;4947053;28;20490;-81
2022/03/02 12:06:27;;;;;;;32.97;21.35;;;;;;;;;;4953514;28;20032;-81
2022/03/02 12:08:54;;;;;;;36.28;21.63;;;;;;;;;;4959727;28;20038;-82
2022/03/02 12:11:24;;;;;;;34.25;21.27;;;;;;;;;;4955696;28;20042;-81
2022/03/02 12:14:04;;;;;;;35.30;21.00;;;;;;;;;;4947334;28;20694;-82
2022/03/02 12:16:44;;;;;;;31.17;20.40;;;;;;;;;;4961110;28;20147;-81
2022/03/02 12:19:20;;;;;;;37.17;20.27;;;;;;;;;;4952171;28;20420;-82
2022/03/02 12:21:46;;;;;;;32.20;19.38;;;;;;;;;;4949086;28;20020;-82
2022/03/02 12:24:12;;;;;;;32.45;19.35;;;;;;;;;;4943273;28;20527;-81
2022/03/02 12:26:46;;;;;;;32.92;18.55;;;;;;;;;;4951478;28;20031;-82
2022/03/02 12:29:12;;;;;;;30.00;19.48;;;;;;;;;;4945793;28;20059;-81
2022/03/02 12:31:38;;;;;;;32.63;19.17;;;;;;;;;;4946112;28;20049;-81
2022/03/02 12:34:17;;;;;;;32.78;20.77;;;;;;;;;;4945031;28;20039;-81
2022/03/02 12:36:44;;;;;;;31.90;19.77;;;;;;;;;;4942651;28;20043;-81
2022/03/02 12:39:10;;;;;;;31.10;20.15;;;;;;;;;;4959655;28;20036;-81
2022/03/02 12:41:37;;;;;;;32.20;20.58;;;;;;;;;;4948033;28;20036;-81
2022/03/02 12:44:04;;;;;;;35.33;20.50;;;;;;;;;;4947776;28;20027;-82
2022/03/02 12:46:31;;;;;;;31.88;20.00;;;;;;;;;;4943638;28;20023;-82
2022/03/02 12:48:57;;;;;;;34.72;18.35;;;;;;;;;;4957157;28;20047;-82
2022/03/02 12:51:26;;;;;;;32.33;19.50;;;;;;;;;;4953250;28;20058;-81
2022/03/02 12:53:53;;;;;;;33.25;19.63;;;;;;;;;;4942743;28;20535;-82
2022/03/02 12:56:19;;;;;;;34.60;20.95;;;;;;;;;;4947127;28;20039;-82
2022/03/02 12:58:45;;;;;;;41.03;20.23;;;;;;;;;;4944168;29;20039;-82
2022/03/02 13:01:11;;;;;;;37.08;20.65;;;;;;;;;;4948932;28;20034;-81
2022/03/02 13:03:45;;;;;;;34.30;20.70;;;;;;;;;;4943588;28;20032;-82
2022/03/02 13:06:13;;;;;;;36.40;19.95;;;;;;;;;;4957288;28;20031;-82
2022/03/02 13:09:00;;;;;;;38.17;21.10;;;;;;;;;;4944104;28;20042;-81
2022/03/02 13:11:31;;;;;;;34.10;20.40;;;;;;;;;;4948837;28;20039;-82
2022/03/02 13:13:57;;;;;;;34.95;21.25;;;;;;;;;;4949234;28;20035;-82
2022/03/02 13:16:30;;;;;;;34.67;20.17;;;;;;;;;;4947009;28;20039;-82
2022/03/02 13:18:58;;;;;;;34.63;20.27;;;;;;;;;;4957401;28;20044;-83
2022/03/02 13:21:25;;;;;;;33.33;20.30;;;;;;;;;;4955091;28;20063;-82
2022/03/02 13:24:12;;;;;;;30.85;18.98;;;;;;;;;;4961030;28;20051;-81
2022/03/02 13:26:57;;;;;;;37.72;21.35;;;;;;;;;;4944107;28;20420;-81
2022/03/02 13:29:28;;;;;;;32.60;20.63;;;;;;;;;;4946312;28;20035;-82
2022/03/02 13:32:05;;;;;;;37.08;21.70;;;;;;;;;;4955649;28;20156;-82
2022/03/02 13:34:32;;;;;;;39.17;20.80;;;;;;;;;;4942686;29;20054;-82
2022/03/02 13:36:59;;;;;;;39.35;20.77;;;;;;;;;;4944461;28;20496;-81
2022/03/02 13:39:31;;;;;;;32.85;20.00;;;;;;;;;;4942305;28;20028;-81
2022/03/02 13:42:00;;;;;;;34.58;19.60;;;;;;;;;;4953652;28;20485;-80
2022/03/02 13:44:40;;;;;;;31.25;20.77;;;;;;;;;;4955470;28;20081;-81
2022/03/02 13:47:12;;;;;;;34.15;21.02;;;;;;;;;;4952370;28;20383;-81
2022/03/02 13:49:47;;;;;;;37.38;19.75;;;;;;;;;;4942125;28;20502;-81
2022/03/02 13:52:14;;;;;;;32.92;19.90;;;;;;;;;;4953252;28;20102;-81
2022/03/02 13:54:40;;;;;;;35.03;20.42;;;;;;;;;;4944177;28;20394;-82
2022/03/02 13:57:16;;;;;;;31.10;18.92;;;;;;;;;;4942023;28;20404;-83
2022/03/02 13:59:42;;;;;;;32.67;18.77;;;;;;;;;;4962798;28;20082;-82
2022/03/02 14:02:09;;;;;;;34.50;20.05;;;;;;;;;;4949120;28;20035;-82
2022/03/02 14:04:35;;;;;;;31.30;19.58;;;;;;;;;;4940693;28;20408;-82
2022/03/02 14:07:04;;;;;;;31.30;19.27;;;;;;;;;;4947309;28;20035;-81
2022/03/02 14:09:30;;;;;;;33.75;20.52;;;;;;;;;;4944959;28;20027;-82
2022/03/02 14:11:58;;;;;;;35.25;21.80;;;;;;;;;;4963090;28;20039;-82
2022/03/02 14:14:28;;;;;;;37.58;20.58;;;;;;;;;;4960845;28;20082;-82
2022/03/02 14:16:54;;;;;;;34.33;21.25;;;;;;;;;;4957847;28;20039;-82
2022/03/02 14:19:20;;;;;;;32.70;20.15;;;;;;;;;;4963170;28;20678;-82
2022/03/02 14:21:57;;;;;;;32.20;19.35;;;;;;;;;;4964472;28;20453;-82